Time;durP1;ratioP1;P1;durP2;ratioP2;P2;SDS_P1;SDS_P2;PMS_P1;PMS_P2;Temp;Humidity;BMP_temperature;BMP_pressure;BME280_temperature;BME280_humidity;BME280_pressure;Samples;Min_cycle;Max_cycle;Signal;HPM_P1;HPM_P2
2022/10/29 00:00:08;;;;;;;7.03;4.00;;;;;;;8.47;nan;-24053.47;5073701;28;20220;-74
2022/10/29 00:02:34;;;;;;;7.87;3.90;;;;;;;8.47;nan;-24053.47;5073675;28;20637;-74
2022/10/29 00:04:59;;;;;;;9.83;3.50;;;;;;;8.41;nan;-24051.91;5073271;28;20212;-74
2022/10/29 00:07:25;;;;;;;7.00;4.23;;;;;;;8.26;nan;-24047.81;5073576;28;20275;-74
2022/10/29 00:09:50;;;;;;;5.97;3.70;;;;;;;7.93;nan;-24038.47;5073709;28;20213;-74
2022/10/29 00:12:15;;;;;;;6.33;3.80;;;;;;;7.93;nan;-24038.47;5072023;28;20177;-74
2022/10/29 00:14:41;;;;;;;6.57;4.07;;;;;;;8.34;nan;-24049.94;5071955;28;20729;-74
2022/10/29 00:17:06;;;;;;;4.17;2.80;;;;;;;8.31;nan;-24049.09;5078286;28;20205;-74
2022/10/29 00:19:31;;;;;;;6.50;3.87;;;;;;;7.90;nan;-24037.75;5091901;28;20176;-75
2022/10/29 00:21:57;;;;;;;9.40;4.30;;;;;;;7.66;nan;-24030.81;5092910;28;20527;-74
2022/10/29 00:24:22;;;;;;;9.37;3.77;;;;;;;7.66;nan;-24030.81;5093391;28;20169;-74
2022/10/29 00:26:47;;;;;;;5.20;3.70;;;;;;;6.95;nan;-24010.97;5093244;28;20668;-75
2022/10/29 00:29:13;;;;;;;4.63;3.40;;;;;;;7.73;nan;-24032.94;5091655;28;20201;-76
2022/10/29 00:31:38;;;;;;;7.87;4.23;;;;;;;8.05;nan;-24041.72;5091572;28;20212;-74
2022/10/29 00:34:03;;;;;;;9.43;3.73;;;;;;;7.74;nan;-24033.22;5093337;28;20169;-75
2022/10/29 00:36:29;;;;;;;4.50;3.07;;;;;;;7.95;nan;-24039.16;5093442;28;20216;-75
2022/10/29 00:38:55;;;;;;;5.53;3.63;;;;;;;7.95;nan;-24039.16;5093056;28;20192;-74
2022/10/29 00:41:27;;;;;;;5.30;3.33;;;;;;;7.69;nan;-24031.81;5092699;28;20988;-75
2022/10/29 00:44:21;;;;;;;6.03;3.67;;;;;;;8.08;nan;-24042.56;5092950;28;20672;-74
2022/10/29 00:46:50;;;;;;;5.47;3.70;;;;;;;8.05;nan;-24041.72;5087642;28;20181;-74
2022/10/29 00:49:17;;;;;;;6.43;3.83;;;;;;;8.13;nan;-24044.00;5089619;28;20208;-75
2022/10/29 00:51:44;;;;;;;7.50;4.10;;;;;;;7.93;nan;-24038.59;5092727;28;20223;-75
2022/10/29 00:54:12;;;;;;;6.70;3.73;;;;;;;7.99;nan;-24040.16;5092517;28;20170;-75
2022/10/29 00:56:42;;;;;;;11.07;4.27;;;;;;;8.03;nan;-24041.28;5093022;28;20240;-75
2022/10/29 00:59:08;;;;;;;7.60;3.97;;;;;;;8.03;nan;-24041.28;5093177;28;20173;-75
2022/10/29 01:01:34;;;;;;;6.10;3.53;;;;;;;8.04;nan;-24041.44;5091336;28;20178;-74
2022/10/29 01:04:00;;;;;;;5.63;4.23;;;;;;;8.04;nan;-24041.44;5090944;28;20588;-75
2022/10/29 01:06:27;;;;;;;5.93;4.20;;;;;;;8.03;nan;-24041.16;5092635;28;20242;-74
2022/10/29 01:08:53;;;;;;;9.37;4.23;;;;;;;7.85;nan;-24036.19;5093169;28;20169;-75
2022/10/29 01:11:36;;;;;;;9.37;4.70;;;;;;;7.85;nan;-24036.19;5091210;28;20182;-74
2022/10/29 01:14:04;;;;;;;4.90;3.67;;;;;;;8.14;nan;-24044.28;5092607;28;20200;-75
2022/10/29 01:16:48;;;;;;;8.10;4.37;;;;;;;7.98;nan;-24040.03;5092047;28;20173;-75
2022/10/29 01:19:48;;;;;;;5.43;3.70;;;;;;;7.92;nan;-24038.19;5092680;28;20640;-74
2022/10/29 01:22:23;;;;;;;7.10;4.00;;;;;;;8.06;nan;-24042.00;5092762;28;20169;-74
2022/10/29 01:25:22;;;;;;;5.67;3.50;;;;;;;7.95;nan;-24039.16;5090693;28;20311;-74
2022/10/29 01:28:02;;;;;;;8.47;4.20;;;;;;;7.57;nan;-24028.25;5090683;28;20181;-74
2022/10/29 01:30:37;;;;;;;5.83;3.03;;;;;;;7.63;nan;-24029.97;5091675;28;20224;-75
2022/10/29 01:33:11;;;;;;;11.20;3.83;;;;;;;7.97;nan;-24039.72;5092574;28;20178;-74
2022/10/29 01:35:48;;;;;;;6.43;4.17;;;;;;;7.92;nan;-24038.19;5091111;28;20225;-75
2022/10/29 01:38:33;;;;;;;9.23;3.90;;;;;;;7.88;nan;-24037.19;5092800;28;20641;-75
2022/10/29 01:41:15;;;;;;;5.73;3.40;;;;;;;7.45;nan;-24025.13;5091997;28;20176;-75
2022/10/29 01:43:49;;;;;;;6.73;3.60;;;;;;;7.01;nan;-24012.81;5091998;28;20682;-74
2022/10/29 01:46:19;;;;;;;8.27;4.17;;;;;;;7.01;nan;-24012.81;5092493;28;20173;-75
2022/10/29 01:48:50;;;;;;;7.07;4.20;;;;;;;7.54;nan;-24027.56;5092340;28;20605;-75
2022/10/29 01:51:23;;;;;;;4.77;3.97;;;;;;;7.48;nan;-24025.84;5092050;28;20176;-75
2022/10/29 01:53:51;;;;;;;5.23;3.20;;;;;;;7.44;nan;-24024.88;5092449;28;20246;-75
2022/10/29 01:56:16;;;;;;;14.87;4.63;;;;;;;6.90;nan;-24009.53;5091535;28;20205;-75
2022/10/29 01:58:50;;;;;;;5.90;3.90;;;;;;;7.28;nan;-24020.19;5090302;28;20212;-75
2022/10/29 02:02:04;;;;;;;8.10;3.37;;;;;;;7.34;nan;-24021.88;5091346;28;20256;-76
2022/10/29 02:04:41;;;;;;;7.33;3.83;;;;;;;7.30;nan;-24020.75;5081048;28;20236;-75
2022/10/29 02:07:20;;;;;;;5.37;3.77;;;;;;;7.05;nan;-24013.81;5091688;28;20177;-75
2022/10/29 02:10:11;;;;;;;9.60;4.53;;;;;;;6.72;nan;-24004.44;5091651;28;20196;-75
2022/10/29 02:12:48;;;;;;;5.97;3.50;;;;;;;6.65;nan;-24002.72;5091753;28;20196;-75
2022/10/29 02:15:19;;;;;;;5.23;3.37;;;;;;;6.98;nan;-24011.81;5091872;28;20860;-74
2022/10/29 02:17:45;;;;;;;7.43;3.90;;;;;;;6.55;nan;-23999.75;5091845;28;20177;-74
2022/10/29 02:20:13;;;;;;;7.77;3.40;;;;;;;6.69;nan;-24003.59;5091833;28;20173;-74
2022/10/29 02:22:38;;;;;;;9.23;4.03;;;;;;;6.82;nan;-24007.28;5091720;28;20333;-75
2022/10/29 02:25:06;;;;;;;7.43;3.67;;;;;;;6.54;nan;-23999.63;5091411;28;20712;-75
2022/10/29 02:27:32;;;;;;;7.20;3.90;;;;;;;6.35;nan;-23994.06;5091732;28;20222;-74
2022/10/29 02:29:58;;;;;;;9.27;4.20;;;;;;;6.77;nan;-24006.00;5091675;28;20645;-75
2022/10/29 02:32:23;;;;;;;4.53;3.60;;;;;;;6.72;nan;-24004.44;5091734;28;20168;-75
2022/10/29 02:34:49;;;;;;;5.37;4.27;;;;;;;6.61;nan;-24001.47;5091759;28;20177;-75
2022/10/29 02:37:14;;;;;;;4.60;3.83;;;;;;;6.58;nan;-24000.59;5091918;28;20165;-75
2022/10/29 02:39:39;;;;;;;11.33;4.90;;;;;;;6.61;nan;-24001.59;5091764;28;20595;-74
2022/10/29 02:42:05;;;;;;;7.50;4.47;;;;;;;6.50;nan;-23998.34;5089902;28;20226;-75
2022/10/29 02:44:30;;;;;;;7.53;4.17;;;;;;;6.56;nan;-24000.19;5091844;28;20193;-75
2022/10/29 02:46:55;;;;;;;8.47;4.97;;;;;;;6.50;nan;-23998.34;5090162;28;20223;-75
2022/10/29 02:49:21;;;;;;;8.17;4.83;;;;;;;6.62;nan;-24001.75;5091535;28;20636;-75
2022/10/29 02:51:46;;;;;;;6.87;3.73;;;;;;;6.48;nan;-23997.75;5091685;28;20256;-75
2022/10/29 02:54:12;;;;;;;6.60;4.23;;;;;;;6.53;nan;-23999.19;5089930;28;20184;-74
2022/10/29 02:56:37;;;;;;;4.90;3.73;;;;;;;6.69;nan;-24003.72;5090006;28;20173;-74
2022/10/29 02:59:03;;;;;;;7.10;4.40;;;;;;;6.68;nan;-24003.31;5091538;28;20191;-75
2022/10/29 03:01:28;;;;;;;5.93;3.53;;;;;;;6.26;nan;-23991.66;5090907;28;20617;-74
2022/10/29 03:03:53;;;;;;;8.27;5.03;;;;;;;6.52;nan;-23998.91;5091389;28;20256;-74
2022/10/29 03:06:19;;;;;;;6.27;4.17;;;;;;;6.47;nan;-23997.47;5091161;28;20192;-75
2022/10/29 03:08:46;;;;;;;7.17;4.33;;;;;;;6.38;nan;-23994.94;5091626;28;20175;-74
2022/10/29 03:11:11;;;;;;;5.97;3.73;;;;;;;6.25;nan;-23991.22;5092696;28;20279;-74
2022/10/29 03:13:37;;;;;;;6.47;3.73;;;;;;;5.95;nan;-23983.00;5094924;28;20260;-74
2022/10/29 03:16:03;;;;;;;6.67;3.70;;;;;;;5.85;nan;-23980.16;5094982;28;20153;-74
2022/10/29 03:18:29;;;;;;;9.23;3.83;;;;;;;5.90;nan;-23981.44;5094789;28;20162;-75
2022/10/29 03:20:54;;;;;;;6.27;4.40;;;;;;;5.72;nan;-23976.59;5092605;28;20177;-75
2022/10/29 03:23:21;;;;;;;7.83;4.57;;;;;;;6.02;nan;-23984.84;5093648;28;20248;-74
2022/10/29 03:25:52;;;;;;;5.70;3.77;;;;;;;5.71;nan;-23976.16;5094686;28;20221;-74
2022/10/29 03:28:18;;;;;;;5.70;3.63;;;;;;;6.09;nan;-23986.97;5094939;28;20177;-74
2022/10/29 03:30:44;;;;;;;7.80;3.67;;;;;;;5.69;nan;-23975.59;5093443;28;20215;-74
2022/10/29 03:33:09;;;;;;;9.60;4.33;;;;;;;5.71;nan;-23976.16;5094287;28;20256;-75
2022/10/29 03:35:34;;;;;;;4.23;3.37;;;;;;;5.86;nan;-23980.28;5094531;28;20177;-75
2022/10/29 03:38:00;;;;;;;6.30;3.10;;;;;;;5.95;nan;-23983.00;5094665;28;20667;-74
2022/10/29 03:40:25;;;;;;;12.13;3.77;;;;;;;5.76;nan;-23977.75;5094579;28;20185;-74
2022/10/29 03:42:50;;;;;;;4.23;3.73;;;;;;;5.97;nan;-23983.56;5094410;28;20605;-75
2022/10/29 03:45:16;;;;;;;5.17;3.67;;;;;;;5.58;nan;-23972.47;5092962;28;20226;-74
2022/10/29 03:47:41;;;;;;;4.77;3.53;;;;;;;5.75;nan;-23977.44;5092855;28;20267;-74
2022/10/29 03:50:07;;;;;;;4.40;3.63;;;;;;;5.48;nan;-23969.78;5073586;28;20209;-75
2022/10/29 03:52:33;;;;;;;5.80;3.87;;;;;;;5.84;nan;-23979.88;5071943;28;20201;-74
2022/10/29 03:54:58;;;;;;;7.10;3.13;;;;;;;5.47;nan;-23969.50;5071921;28;20625;-73
2022/10/29 03:57:23;;;;;;;4.63;3.37;;;;;;;5.76;nan;-23977.59;5072068;28;20194;-74
2022/10/29 03:59:49;;;;;;;7.83;4.30;;;;;;;5.30;nan;-23964.66;5078287;28;20180;-75
2022/10/29 04:02:14;;;;;;;3.60;2.97;;;;;;;5.92;nan;-23982.16;5093959;28;20192;-75
2022/10/29 04:04:39;;;;;;;4.87;3.20;;;;;;;5.64;nan;-23974.31;5093927;28;20693;-75
2022/10/29 04:07:05;;;;;;;5.80;3.63;;;;;;;5.67;nan;-23975.03;5093728;28;20158;-74
2022/10/29 04:09:30;;;;;;;6.07;3.60;;;;;;;5.59;nan;-23972.75;5091912;28;20257;-74
2022/10/29 04:11:56;;;;;;;5.23;3.50;;;;;;;5.65;nan;-23974.47;5093523;28;20174;-73
2022/10/29 04:14:21;;;;;;;3.40;3.10;;;;;;;5.61;nan;-23973.34;5093511;28;20319;-74
2022/10/29 04:16:46;;;;;;;4.97;3.60;;;;;;;5.42;nan;-23967.94;5092998;28;20663;-74
2022/10/29 04:19:12;;;;;;;7.93;3.23;;;;;;;5.41;nan;-23967.78;5091913;28;20268;-75
2022/10/29 04:21:37;;;;;;;6.73;3.37;;;;;;;5.38;nan;-23966.78;5092941;28;20525;-73
2022/10/29 04:24:03;;;;;;;6.30;3.80;;;;;;;5.03;nan;-23956.97;5094714;28;20173;-75
2022/10/29 04:26:28;;;;;;;4.10;3.07;;;;;;;5.50;nan;-23970.34;5107412;28;20724;-73
2022/10/29 04:28:54;;;;;;;7.53;3.97;;;;;;;5.52;nan;-23970.91;5095198;28;20261;-76
2022/10/29 04:31:19;;;;;;;3.33;2.70;;;;;;;5.55;nan;-23971.63;5094290;28;20185;-75
2022/10/29 04:33:45;;;;;;;6.37;3.17;;;;;;;5.26;nan;-23963.53;5092092;28;20204;-73
2022/10/29 04:36:11;;;;;;;6.53;4.20;;;;;;;5.52;nan;-23970.91;5090945;28;20187;-73
2022/10/29 04:38:36;;;;;;;4.27;3.07;;;;;;;5.48;nan;-23969.63;5093398;28;20632;-73
2022/10/29 04:41:03;;;;;;;7.17;3.83;;;;;;;5.27;nan;-23963.94;5093313;28;20177;-74
2022/10/29 04:43:29;;;;;;;6.87;3.97;;;;;;;5.07;nan;-23958.25;5091679;28;20177;-74
2022/10/29 04:45:57;;;;;;;6.87;3.30;;;;;;;5.12;nan;-23959.69;5093138;28;20294;-75
2022/10/29 04:48:24;;;;;;;3.67;3.07;;;;;;;5.31;nan;-23965.09;5092804;28;20170;-74
2022/10/29 04:50:50;;;;;;;4.60;3.10;;;;;;;5.52;nan;-23970.78;5093209;28;20205;-75
2022/10/29 04:53:16;;;;;;;6.80;3.93;;;;;;;5.58;nan;-23972.63;5092200;28;20172;-74
2022/10/29 04:55:41;;;;;;;5.80;3.97;;;;;;;5.46;nan;-23969.06;5092903;28;20177;-74
2022/10/29 04:58:11;;;;;;;5.33;3.33;;;;;;;5.49;nan;-23969.91;5092650;28;20170;-75
2022/10/29 05:00:37;;;;;;;3.97;3.20;;;;;;;5.31;nan;-23965.09;5093075;28;20195;-76
2022/10/29 05:03:02;;;;;;;6.00;2.73;;;;;;;5.26;nan;-23963.66;5091576;28;20671;-74
2022/10/29 05:05:28;;;;;;;3.80;3.40;;;;;;;5.17;nan;-23960.97;5092740;28;20174;-74
2022/10/29 05:07:58;;;;;;;7.20;3.67;;;;;;;5.49;nan;-23969.91;5092391;28;20303;-75
2022/10/29 05:10:30;;;;;;;7.10;3.47;;;;;;;5.44;nan;-23968.50;5092913;28;20197;-74
2022/10/29 05:13:00;;;;;;;4.87;3.07;;;;;;;5.44;nan;-23968.50;5093136;28;20178;-74
2022/10/29 05:15:26;;;;;;;5.97;3.10;;;;;;;5.48;nan;-23969.63;5092933;28;20173;-75
2022/10/29 05:17:53;;;;;;;8.13;4.00;;;;;;;5.55;nan;-23971.63;5093215;28;20216;-74
2022/10/29 05:20:19;;;;;;;4.00;3.20;;;;;;;5.33;nan;-23965.66;5092077;28;20173;-75
2022/10/29 05:22:44;;;;;;;3.63;2.73;;;;;;;5.78;nan;-23978.31;5092334;28;20174;-76
2022/10/29 05:25:10;;;;;;;6.73;3.70;;;;;;;5.77;nan;-23977.88;5092762;28;20726;-76
2022/10/29 05:27:35;;;;;;;7.43;2.90;;;;;;;5.88;nan;-23980.88;5092615;28;20629;-75
2022/10/29 05:30:00;;;;;;;4.57;2.97;;;;;;;5.84;nan;-23979.88;5093114;28;20197;-76
2022/10/29 05:32:29;;;;;;;6.47;3.53;;;;;;;6.07;nan;-23986.25;5091667;28;20181;-76
2022/10/29 05:34:54;;;;;;;6.13;3.40;;;;;;;5.97;nan;-23983.41;5091243;28;20616;-76
2022/10/29 05:37:20;;;;;;;5.03;3.50;;;;;;;6.18;nan;-23989.53;5091117;28;20273;-75
2022/10/29 05:39:45;;;;;;;5.37;3.67;;;;;;;6.15;nan;-23988.69;5092180;28;20177;-76
2022/10/29 05:42:10;;;;;;;5.37;3.10;;;;;;;6.20;nan;-23989.97;5087520;28;20197;-75
2022/10/29 05:44:36;;;;;;;5.50;2.87;;;;;;;6.55;nan;-23999.75;5076858;28;20233;-76
2022/10/29 05:47:02;;;;;;;5.33;3.00;;;;;;;6.71;nan;-24004.28;5092512;28;20173;-74
2022/10/29 05:49:27;;;;;;;5.43;3.00;;;;;;;6.69;nan;-24003.59;5079679;28;20197;-74
2022/10/29 05:51:53;;;;;;;4.53;3.30;;;;;;;6.94;nan;-24010.81;5071938;28;20170;-74
2022/10/29 05:54:18;;;;;;;6.23;3.77;;;;;;;7.02;nan;-24012.94;5070622;28;20543;-75
2022/10/29 05:56:44;;;;;;;5.47;3.17;;;;;;;6.85;nan;-24008.25;5072454;28;20181;-75
2022/10/29 05:59:09;;;;;;;5.57;3.07;;;;;;;2.42;nan;-23883.59;5071501;28;20262;-72
2022/10/29 06:01:34;;;;;;;6.93;3.33;;;;;;;6.92;nan;-24010.13;5071657;28;20178;-75
2022/10/29 06:04:00;;;;;;;6.50;3.27;;;;;;;7.22;nan;-24018.63;5074111;28;20173;-74
2022/10/29 06:06:26;;;;;;;5.43;3.23;;;;;;;7.34;nan;-24022.03;5082610;28;20288;-75
2022/10/29 06:08:52;;;;;;;4.30;3.60;;;;;;;7.55;nan;-24027.97;5081180;28;20173;-64
2022/10/29 06:11:17;;;;;;;5.97;3.37;;;;;;;7.57;nan;-24028.25;5083952;28;20208;-65
2022/10/29 06:13:43;;;;;;;5.83;3.33;;;;;;;7.86;nan;-24036.63;5082922;28;20188;-63
2022/10/29 06:16:08;;;;;;;6.20;3.67;;;;;;;7.62;nan;-24029.69;5084143;28;20204;-65
2022/10/29 06:18:33;;;;;;;5.50;3.47;;;;;;;8.04;nan;-24041.56;5083824;28;20178;-66
2022/10/29 06:20:59;;;;;;;6.27;3.80;;;;;;;8.16;nan;-24044.84;5084238;28;20186;-64
2022/10/29 06:23:26;;;;;;;5.80;3.43;;;;;;;7.57;nan;-24028.25;5083200;28;20209;-65
2022/10/29 06:25:51;;;;;;;7.23;2.93;;;;;;;8.36;nan;-24050.66;5084085;28;20217;-64
2022/10/29 06:28:18;;;;;;;5.87;3.37;;;;;;;8.28;nan;-24048.22;5085014;28;20181;-63
2022/10/29 06:30:48;;;;;;;8.13;4.80;;;;;;;8.64;nan;-24058.28;5082653;28;20197;-64
2022/10/29 06:33:15;;;;;;;7.53;4.50;;;;;;;8.68;nan;-24059.41;5083230;28;20181;-63
2022/10/29 06:35:40;;;;;;;5.77;3.63;;;;;;;9.11;nan;-24071.44;5084236;28;20230;-65
2022/10/29 06:38:05;;;;;;;7.87;4.10;;;;;;;8.98;nan;-24067.75;5083223;28;20615;-62
2022/10/29 06:40:31;;;;;;;7.00;3.80;;;;;;;9.16;nan;-24072.84;5083362;28;20165;-66
2022/10/29 06:43:08;;;;;;;9.40;3.50;;;;;;;9.11;nan;-24071.44;5080563;28;20182;-64
2022/10/29 06:45:34;;;;;;;17.80;3.60;;;;;;;9.22;nan;-24074.56;5083393;28;20181;-66
2022/10/29 06:48:00;;;;;;;6.93;3.80;;;;;;;9.90;nan;-24093.47;5087424;28;20566;-63
2022/10/29 06:50:25;;;;;;;4.33;2.63;;;;;;;9.69;nan;-24087.84;5085182;28;20204;-65
2022/10/29 06:52:59;;;;;;;6.63;3.87;;;;;;;10.22;nan;-24102.53;5084893;28;20284;-64
2022/10/29 06:55:25;;;;;;;3.40;2.63;;;;;;;10.01;nan;-24096.72;5086026;28;20256;-66
2022/10/29 06:58:02;;;;;;;3.83;3.40;;;;;;;10.29;nan;-24104.50;5085173;28;20184;-63
2022/10/29 07:00:29;;;;;;;6.77;3.20;;;;;;;10.52;nan;-24110.84;5086681;28;20181;-65
2022/10/29 07:02:55;;;;;;;3.87;2.87;;;;;;;10.32;nan;-24105.22;5084335;28;20183;-66
2022/10/29 07:05:21;;;;;;;4.50;3.00;;;;;;;8.33;nan;-24049.66;5087306;28;20290;-65
2022/10/29 07:07:46;;;;;;;4.97;3.50;;;;;;;11.02;nan;-24124.97;5085384;28;20189;-66
2022/10/29 07:10:12;;;;;;;5.27;3.53;;;;;;;11.20;nan;-24129.75;5084208;28;20205;-66
2022/10/29 07:12:44;;;;;;;3.97;2.73;;;;;;;10.88;nan;-24120.88;5086301;28;20170;-63
2022/10/29 07:15:11;;;;;;;4.50;2.93;;;;;;;10.83;nan;-24119.59;5086382;28;20648;-66
2022/10/29 07:17:36;;;;;;;4.77;2.63;;;;;;;11.46;nan;-24137.22;5083687;28;20177;-67
2022/10/29 07:20:04;;;;;;;4.23;3.03;;;;;;;11.24;nan;-24131.03;5085592;28;20185;-64
2022/10/29 07:22:29;;;;;;;5.18;2.85;;;;;;;11.37;nan;-24134.53;5091377;28;20653;-62
2022/10/29 07:24:55;;;;;;;4.80;3.28;;;;;;;11.77;nan;-24145.69;5093723;28;21202;-63
2022/10/29 07:27:20;;;;;;;3.90;2.70;;;;;;;11.99;nan;-24151.72;5086684;28;20286;-66
2022/10/29 07:29:45;;;;;;;4.50;3.03;;;;;;;12.02;nan;-24152.72;5091883;28;20197;-65
2022/10/29 07:32:11;;;;;;;4.45;3.17;;;;;;;12.20;nan;-24157.66;5082182;28;20178;-64
2022/10/29 07:34:36;;;;;;;4.90;2.95;;;;;;;12.56;nan;-24167.63;5088623;28;20181;-65
2022/10/29 07:37:02;;;;;;;7.13;3.33;;;;;;;12.52;nan;-24166.66;5092925;28;20185;-64
2022/10/29 07:39:27;;;;;;;6.97;2.97;;;;;;;12.39;nan;-24163.13;5080924;28;20177;-64
2022/10/29 07:41:53;;;;;;;5.05;2.47;;;;;;;12.44;nan;-24164.41;5093133;28;20556;-65
2022/10/29 07:44:18;;;;;;;5.18;2.88;;;;;;;12.92;nan;-24177.75;5094284;28;20173;-62
2022/10/29 07:46:43;;;;;;;5.90;3.13;;;;;;;13.04;nan;-24181.13;5076248;28;20604;-64
2022/10/29 07:49:09;;;;;;;4.78;3.17;;;;;;;13.28;nan;-24187.75;5076513;28;20174;-63
2022/10/29 07:51:34;;;;;;;6.85;3.25;;;;;;;13.28;nan;-24187.75;5093899;28;20169;-62
2022/10/29 07:53:59;;;;;;;5.47;3.28;;;;;;;13.51;nan;-24194.06;5094418;28;20191;-65
2022/10/29 07:56:25;;;;;;;4.82;3.22;;;;;;;13.39;nan;-24190.84;5093384;28;20172;-63
2022/10/29 07:58:50;;;;;;;5.32;2.90;;;;;;;13.72;nan;-24199.97;5093409;28;20222;-64
2022/10/29 08:01:15;;;;;;;6.20;3.38;;;;;;;13.91;nan;-24205.28;5093355;28;20242;-63
2022/10/29 08:03:41;;;;;;;5.47;3.17;;;;;;;13.99;nan;-24207.41;5093896;28;20208;-65
2022/10/29 08:06:06;;;;;;;13.05;3.70;;;;;;;14.33;nan;-24216.94;5093875;28;20192;-62
2022/10/29 08:08:33;;;;;;;5.78;3.20;;;;;;;14.44;nan;-24220.03;5093268;28;20177;-65
2022/10/29 08:11:03;;;;;;;4.85;2.78;;;;;;;14.36;nan;-24217.78;5092294;28;20240;-65
2022/10/29 08:13:29;;;;;;;5.47;3.47;;;;;;;14.20;nan;-24213.28;5093565;28;20209;-64
2022/10/29 08:15:55;;;;;;;5.97;3.42;;;;;;;14.70;nan;-24227.03;5092705;28;20207;-62
2022/10/29 08:18:21;;;;;;;6.70;3.10;;;;;;;14.91;nan;-24232.94;5092163;28;20242;-62
2022/10/29 08:20:46;;;;;;;5.18;3.10;;;;;;;15.27;nan;-24242.88;5088915;28;20641;-64
2022/10/29 08:23:13;;;;;;;5.60;3.03;;;;;;;14.88;nan;-24232.22;5073235;28;20201;-62
2022/10/29 08:25:41;;;;;;;5.25;3.17;;;;;;;14.98;nan;-24235.03;5082162;28;20221;-64
2022/10/29 08:28:13;;;;;;;4.40;2.88;;;;;;;15.30;nan;-24243.72;5093050;28;20256;-64
2022/10/29 08:30:39;;;;;;;5.70;3.38;;;;;;;15.02;nan;-24236.00;5093141;28;20200;-63
2022/10/29 08:33:05;;;;;;;5.25;3.50;;;;;;;15.46;nan;-24248.19;5093137;28;20181;-62
2022/10/29 08:35:32;;;;;;;4.88;3.00;;;;;;;15.59;nan;-24251.69;5092261;28;20314;-62
2022/10/29 08:37:57;;;;;;;5.70;3.30;;;;;;;15.79;nan;-24257.44;5092941;28;20173;-65
2022/10/29 08:40:40;;;;;;;4.40;3.03;;;;;;;15.77;nan;-24256.88;5092745;28;20181;-64
2022/10/29 08:43:12;;;;;;;4.93;3.13;;;;;;;15.85;nan;-24258.97;5092807;28;20189;-64
2022/10/29 08:45:46;;;;;;;4.60;2.83;;;;;;;15.87;nan;-24259.53;5092819;28;20216;-63
2022/10/29 08:48:20;;;;;;;5.80;3.33;;;;;;;16.07;nan;-24265.00;5092908;28;20721;-63
2022/10/29 08:50:50;;;;;;;5.07;3.33;;;;;;;16.05;nan;-24264.56;5092415;28;20223;-62
2022/10/29 08:53:19;;;;;;;5.13;2.97;;;;;;;16.19;nan;-24268.34;5092544;28;20166;-63
2022/10/29 08:55:46;;;;;;;7.78;2.97;;;;;;;16.45;nan;-24275.47;5092498;28;20199;-63
2022/10/29 08:58:32;;;;;;;5.63;2.80;;;;;;;16.81;nan;-24285.41;5092474;28;20568;-63
2022/10/29 09:00:58;;;;;;;6.20;2.97;;;;;;;16.90;nan;-24288.06;5092486;28;20229;-64
2022/10/29 09:03:28;;;;;;;5.25;2.95;;;;;;;16.79;nan;-24285.13;5092544;28;20177;-62
2022/10/29 09:05:56;;;;;;;9.68;2.75;;;;;;;17.41;nan;-24302.00;5092443;28;20224;-63
2022/10/29 09:08:51;;;;;;;3.85;2.63;;;;;;;17.29;nan;-24298.66;5091937;28;20169;-61
2022/10/29 09:11:42;;;;;;;5.20;2.70;;;;;;;17.16;nan;-24295.31;5092210;28;20197;-65
2022/10/29 09:14:39;;;;;;;4.13;2.67;;;;;;;17.48;nan;-24303.97;5092518;28;20617;-63
2022/10/29 09:17:19;;;;;;;6.07;3.15;;;;;;;17.72;nan;-24310.66;5092431;28;20579;-63
2022/10/29 09:19:57;;;;;;;4.63;2.90;;;;;;;17.91;nan;-24315.97;5092223;28;20271;-62
2022/10/29 09:22:35;;;;;;;4.00;2.45;;;;;;;18.01;nan;-24318.75;5091724;28;20240;-60
2022/10/29 09:25:15;;;;;;;5.72;2.70;;;;;;;18.11;nan;-24321.41;5091614;28;20243;-65
2022/10/29 09:27:53;;;;;;;4.65;2.92;;;;;;;18.25;nan;-24325.31;5092295;28;20181;-62
2022/10/29 09:30:19;;;;;;;7.80;2.80;;;;;;;18.41;nan;-24329.75;5091538;28;20204;-63
2022/10/29 09:33:03;;;;;;;4.03;2.50;;;;;;;18.23;nan;-24324.75;5091693;28;20236;-62
2022/10/29 09:35:37;;;;;;;5.43;2.78;;;;;;;18.33;nan;-24327.41;5091862;28;20272;-64
2022/10/29 09:38:12;;;;;;;5.80;3.03;;;;;;;18.77;nan;-24339.53;5091676;28;20169;-63
2022/10/29 09:40:40;;;;;;;4.07;2.53;;;;;;;18.42;nan;-24329.91;5091617;28;20252;-63
2022/10/29 09:43:32;;;;;;;6.50;3.13;;;;;;;18.69;nan;-24337.28;5091376;28;20560;-61
2022/10/29 09:45:58;;;;;;;4.28;2.53;;;;;;;18.89;nan;-24342.84;5053294;28;20204;-64
2022/10/29 09:48:39;;;;;;;4.47;2.63;;;;;;;18.91;nan;-24343.41;5091620;28;20173;-64
2022/10/29 09:51:28;;;;;;;3.17;2.47;;;;;;;18.91;nan;-24343.41;5091448;28;20284;-62
2022/10/29 09:53:53;;;;;;;5.72;3.00;;;;;;;18.86;nan;-24342.16;5091788;28;20203;-65
2022/10/29 09:56:19;;;;;;;5.20;2.63;;;;;;;19.28;nan;-24353.56;5091472;28;20204;-63
2022/10/29 09:58:51;;;;;;;5.28;3.10;;;;;;;19.02;nan;-24346.34;5091673;28;20161;-62
2022/10/29 10:01:16;;;;;;;4.55;2.22;;;;;;;19.20;nan;-24351.34;5091921;28;20180;-63
2022/10/29 10:03:46;;;;;;;4.35;2.72;;;;;;;19.32;nan;-24354.81;5089750;28;20181;-64
2022/10/29 10:06:14;;;;;;;4.95;2.70;;;;;;;19.17;nan;-24350.50;5091696;28;20184;-65
2022/10/29 10:09:00;;;;;;;5.88;2.80;;;;;;;19.35;nan;-24355.53;5091245;28;20169;-63
2022/10/29 10:11:51;;;;;;;4.60;2.65;;;;;;;19.63;nan;-24363.16;5090333;28;20204;-65
2022/10/29 10:14:22;;;;;;;3.83;2.70;;;;;;;19.65;nan;-24363.72;5074741;28;20173;-63
2022/10/29 10:16:59;;;;;;;3.53;2.33;;;;;;;19.38;nan;-24356.34;5089698;28;20230;-61
2022/10/29 10:19:29;;;;;;;4.43;2.60;;;;;;;19.69;nan;-24364.97;5086508;28;20209;-64
2022/10/29 10:22:00;;;;;;;3.83;2.53;;;;;;;19.72;nan;-24365.69;5073947;28;20611;-62
2022/10/29 10:24:34;;;;;;;4.70;2.90;;;;;;;19.82;nan;-24368.59;5074879;28;20645;-61
2022/10/29 10:27:20;;;;;;;4.88;2.83;;;;;;;19.21;nan;-24351.75;5080037;28;20225;-63
2022/10/29 10:30:11;;;;;;;3.38;2.20;;;;;;;19.40;nan;-24357.06;5092815;28;20200;-62
2022/10/29 10:32:37;;;;;;;4.50;2.65;;;;;;;19.47;nan;-24358.72;5091968;28;20177;-62
2022/10/29 10:35:02;;;;;;;4.28;2.97;;;;;;;;;;5087925;28;20184;-63
2022/10/29 10:37:32;;;;;;;3.45;2.50;;;;;;;19.57;nan;-24361.50;5086006;28;20180;-62
2022/10/29 10:40:01;;;;;;;3.97;2.67;;;;;;;19.79;nan;-24367.63;5085361;28;20177;-62
2022/10/29 10:42:29;;;;;;;4.25;2.60;;;;;;;20.00;nan;-24373.31;5094858;28;20543;-62
2022/10/29 10:45:01;;;;;;;4.43;2.80;;;;;;;19.90;nan;-24370.69;5083086;28;20196;-65
2022/10/29 10:47:29;;;;;;;4.82;2.88;;;;;;;19.68;nan;-24364.69;5090921;28;20181;-63
2022/10/29 10:50:10;;;;;;;6.47;2.78;;;;;;;19.78;nan;-24367.47;5078279;28;20205;-62
2022/10/29 10:52:36;;;;;;;3.60;2.10;;;;;;;19.53;nan;-24360.53;5093533;28;20181;-61
2022/10/29 10:55:21;;;;;;;3.30;2.47;;;;;;;19.97;nan;-24372.50;5092243;28;20188;-64
2022/10/29 10:57:57;;;;;;;3.97;2.55;;;;;;;20.06;nan;-24375.00;5093634;28;20174;-63
2022/10/29 11:00:23;;;;;;;4.05;2.60;;;;;;;20.21;nan;-24379.28;5083772;28;20181;-62
2022/10/29 11:03:05;;;;;;;4.57;2.30;;;;;;;20.36;nan;-24383.31;5084647;28;20177;-61
2022/10/29 11:05:35;;;;;;;3.30;2.17;;;;;;;20.38;nan;-24383.75;5094779;28;20169;-64
2022/10/29 11:08:28;;;;;;;3.92;2.30;;;;;;;20.68;nan;-24392.06;5076770;28;20192;-62
2022/10/29 11:10:58;;;;;;;3.17;1.95;;;;;;;20.61;nan;-24390.13;5073914;28;20197;-63
2022/10/29 11:13:29;;;;;;;4.78;2.67;;;;;;;20.95;nan;-24399.41;5074397;28;20588;-64
2022/10/29 11:16:10;;;;;;;3.50;2.20;;;;;;;20.77;nan;-24394.56;5074299;28;20249;-65
2022/10/29 11:18:44;;;;;;;5.40;2.50;;;;;;;20.90;nan;-24398.16;5074217;28;20170;-64
2022/10/29 11:21:21;;;;;;;4.05;2.60;;;;;;;21.26;nan;-24407.88;5074176;28;20170;-63
2022/10/29 11:24:09;;;;;;;3.92;2.45;;;;;;;21.42;nan;-24412.31;5074112;28;20177;-63
2022/10/29 11:26:47;;;;;;;2.67;1.88;;;;;;;21.49;nan;-24414.25;5074267;28;20256;-63
2022/10/29 11:30:03;;;;;;;3.05;2.25;;;;;;;21.58;nan;-24416.75;5073428;28;20194;-64
2022/10/29 11:32:58;;;;;;;4.78;3.20;;;;;;;21.51;nan;-24414.94;5047322;28;20538;-62
2022/10/29 11:35:38;;;;;;;2.38;1.92;;;;;;;21.45;nan;-24413.28;5073245;28;20163;-63
2022/10/29 11:38:08;;;;;;;3.05;2.20;;;;;;;21.24;nan;-24407.31;5073616;28;20214;-63
2022/10/29 11:40:44;;;;;;;2.97;2.25;;;;;;;21.21;nan;-24406.50;5073959;28;20617;-65
2022/10/29 11:43:12;;;;;;;2.38;1.90;;;;;;;21.14;nan;-24404.84;5073560;28;20171;-65
2022/10/29 11:46:02;;;;;;;5.85;2.38;;;;;;;21.33;nan;-24409.97;5073878;28;20170;-63
2022/10/29 11:48:47;;;;;;;4.13;2.30;;;;;;;21.46;nan;-24413.56;5073691;28;20189;-62
2022/10/29 11:51:34;;;;;;;2.25;1.92;;;;;;;21.40;nan;-24411.75;5072765;28;20221;-65
2022/10/29 11:54:21;;;;;;;5.05;2.13;;;;;;;21.66;nan;-24418.81;5073456;28;20170;-64
2022/10/29 11:56:58;;;;;;;3.38;2.15;;;;;;;18.69;nan;-24337.28;5073186;28;20283;-64
2022/10/29 11:59:42;;;;;;;3.45;2.08;;;;;;;21.81;nan;-24423.13;5073795;28;20158;-63